Time;durP1;ratioP1;P1;durP2;ratioP2;P2;SDS_P1;SDS_P2;PMS_P1;PMS_P2;Temp;Humidity;BMP_temperature;BMP_pressure;BME280_temperature;BME280_humidity;BME280_pressure;Samples;Min_cycle;Max_cycle;Signal;HPM_P1;HPM_P2
2023/07/18 00:00:55;;;;;;;3.78;1.75;;;18.70;48.50;;;;;;4949461;28;20051;-56
2023/07/18 00:03:22;;;;;;;4.00;1.90;;;18.70;48.60;;;;;;4949606;28;20055;-57
2023/07/18 00:05:50;;;;;;;4.80;2.10;;;18.70;48.60;;;;;;4948004;28;20051;-57
2023/07/18 00:08:17;;;;;;;2.90;1.92;;;18.60;48.60;;;;;;4948571;28;20515;-56
2023/07/18 00:10:46;;;;;;;3.63;2.05;;;18.70;48.70;;;;;;4948799;28;20056;-56
2023/07/18 00:13:13;;;;;;;3.50;2.00;;;18.60;48.80;;;;;;4948093;28;20063;-57
2023/07/18 00:15:40;;;;;;;5.32;1.80;;;18.60;49.00;;;;;;4949066;28;20058;-57
2023/07/18 00:18:08;;;;;;;2.67;1.77;;;18.60;49.10;;;;;;4948339;28;20055;-57
2023/07/18 00:20:35;;;;;;;4.05;1.90;;;18.50;49.10;;;;;;4947843;28;20511;-57
2023/07/18 00:23:03;;;;;;;4.25;1.90;;;18.50;49.20;;;;;;4948767;28;20515;-57
2023/07/18 00:25:30;;;;;;;3.20;2.00;;;18.50;49.30;;;;;;4948448;28;20058;-55
2023/07/18 00:27:58;;;;;;;3.28;2.20;;;18.50;49.30;;;;;;4948037;28;20407;-57
2023/07/18 00:30:26;;;;;;;2.58;1.98;;;18.50;49.40;;;;;;4948739;28;20062;-56
2023/07/18 00:32:53;;;;;;;3.67;2.22;;;18.50;49.50;;;;;;4947997;28;20063;-57
2023/07/18 00:35:20;;;;;;;4.47;1.88;;;18.40;49.50;;;;;;4949148;28;20492;-55
2023/07/18 00:37:47;;;;;;;4.07;2.33;;;18.40;49.50;;;;;;4948712;28;20077;-56
2023/07/18 00:40:16;;;;;;;3.15;2.00;;;18.40;49.50;;;;;;4949650;28;20404;-56
2023/07/18 00:42:45;;;;;;;3.42;1.95;;;18.40;49.50;;;;;;4948437;28;20065;-57
2023/07/18 00:45:14;;;;;;;4.10;1.83;;;18.40;49.40;;;;;;4947283;28;20051;-56
2023/07/18 00:47:44;;;;;;;4.75;2.13;;;18.40;49.40;;;;;;4948872;28;20062;-57
2023/07/18 00:50:14;;;;;;;2.70;1.88;;;18.30;49.40;;;;;;4948645;28;20384;-57
2023/07/18 00:52:44;;;;;;;2.97;2.10;;;18.30;49.40;;;;;;4947421;28;20507;-57
2023/07/18 00:55:13;;;;;;;3.10;1.70;;;18.30;49.40;;;;;;4948307;28;20061;-57
2023/07/18 00:57:41;;;;;;;6.90;2.10;;;18.30;49.50;;;;;;4947828;28;20415;-55
2023/07/18 01:02:41;;;;;;;3.65;2.22;;;18.30;49.70;;;;;;4947224;28;20063;-55
2023/07/18 01:05:09;;;;;;;3.72;1.80;;;18.20;49.70;;;;;;4946330;28;20062;-54
2023/07/18 01:07:37;;;;;;;3.63;2.00;;;18.20;49.70;;;;;;4945631;28;20051;-54
2023/07/18 01:10:18;;;;;;;3.67;1.67;;;18.20;49.80;;;;;;4946408;28;20622;-56
2023/07/18 01:12:46;;;;;;;3.88;1.80;;;18.20;50.00;;;;;;4946568;28;20059;-56
2023/07/18 01:15:13;;;;;;;4.38;2.17;;;18.20;49.90;;;;;;4947585;28;20047;-56
2023/07/18 01:17:45;;;;;;;2.13;1.60;;;18.10;49.90;;;;;;4949146;28;20450;-56
2023/07/18 01:20:18;;;;;;;4.07;2.03;;;18.10;50.00;;;;;;4947033;28;20512;-56
2023/07/18 01:22:49;;;;;;;4.50;2.60;;;18.10;50.00;;;;;;4945840;28;20070;-57
2023/07/18 01:25:17;;;;;;;4.72;1.95;;;18.10;50.00;;;;;;4945943;28;20043;-57
2023/07/18 01:27:45;;;;;;;3.92;2.15;;;18.10;50.10;;;;;;4947253;28;20061;-54
2023/07/18 01:30:13;;;;;;;3.60;1.85;;;18.00;50.10;;;;;;4946891;28;20059;-56
2023/07/18 01:32:41;;;;;;;2.67;1.80;;;18.00;50.10;;;;;;4946214;28;20077;-55
2023/07/18 01:35:10;;;;;;;4.43;1.98;;;18.00;50.10;;;;;;4945561;28;20521;-56
2023/07/18 01:37:38;;;;;;;3.10;1.90;;;18.00;50.20;;;;;;4945994;28;20530;-55
2023/07/18 01:40:12;;;;;;;3.45;2.10;;;18.00;50.30;;;;;;4946002;28;20399;-55
2023/07/18 01:42:39;;;;;;;2.85;1.73;;;18.00;50.40;;;;;;4946126;28;20059;-57
2023/07/18 01:45:07;;;;;;;3.33;1.98;;;17.90;50.30;;;;;;4945596;28;20051;-58
2023/07/18 01:47:35;;;;;;;3.17;2.00;;;17.90;50.30;;;;;;4946733;28;20059;-56
2023/07/18 01:50:04;;;;;;;5.10;2.10;;;17.90;50.30;;;;;;4946483;28;20059;-56
2023/07/18 01:52:32;;;;;;;3.30;1.90;;;17.90;50.40;;;;;;4945345;28;20402;-57
2023/07/18 01:55:00;;;;;;;3.28;1.90;;;17.90;50.40;;;;;;4944883;28;20056;-57
2023/07/18 01:57:31;;;;;;;3.05;2.15;;;17.90;50.40;;;;;;4945624;28;20082;-55
2023/07/18 01:59:59;;;;;;;4.32;2.05;;;17.80;50.50;;;;;;4945599;28;20534;-56
2023/07/18 02:02:27;;;;;;;3.30;1.95;;;17.80;50.50;;;;;;4926408;28;20139;-56
2023/07/18 02:04:55;;;;;;;3.30;1.95;;;17.80;50.50;;;;;;4926128;28;20074;-57
2023/07/18 02:07:23;;;;;;;5.28;2.60;;;17.80;50.50;;;;;;4925405;28;20063;-56
2023/07/18 02:09:50;;;;;;;3.40;1.83;;;17.80;50.60;;;;;;4926656;28;20055;-56
2023/07/18 02:12:19;;;;;;;3.35;2.00;;;17.70;50.60;;;;;;4927686;28;20055;-58
2023/07/18 02:14:48;;;;;;;4.32;2.10;;;17.70;50.60;;;;;;4926118;28;20047;-60
2023/07/18 02:17:15;;;;;;;5.13;2.30;;;17.70;50.70;;;;;;4924754;28;20081;-59
2023/07/18 02:19:42;;;;;;;3.15;2.10;;;17.70;50.70;;;;;;4926512;28;20483;-60
2023/07/18 02:22:09;;;;;;;3.70;2.05;;;17.70;50.70;;;;;;4925539;28;20056;-60
2023/07/18 02:24:37;;;;;;;4.07;1.85;;;17.70;50.80;;;;;;4925192;28;20060;-60
2023/07/18 02:27:05;;;;;;;2.83;1.65;;;17.60;50.70;;;;;;4925791;28;20606;-60
2023/07/18 02:29:32;;;;;;;3.55;2.08;;;17.60;50.80;;;;;;4926026;28;20477;-60
2023/07/18 02:32:01;;;;;;;3.47;2.20;;;17.60;50.80;;;;;;4926237;28;20067;-60
2023/07/18 02:34:28;;;;;;;3.15;2.15;;;17.60;50.90;;;;;;4926455;28;20052;-59
2023/07/18 02:36:56;;;;;;;4.30;1.88;;;17.60;50.90;;;;;;4926163;28;20503;-60
2023/07/18 02:39:23;;;;;;;3.05;2.20;;;17.60;50.90;;;;;;4926259;28;20512;-60
2023/07/18 02:41:51;;;;;;;3.38;2.22;;;17.60;51.00;;;;;;4925764;28;20079;-59
2023/07/18 02:44:18;;;;;;;4.28;2.45;;;17.50;50.90;;;;;;4926516;28;20059;-59
2023/07/18 02:46:45;;;;;;;3.25;2.10;;;17.50;51.00;;;;;;4925394;28;20506;-59
2023/07/18 02:49:14;;;;;;;5.55;2.20;;;17.50;51.00;;;;;;4926479;28;20063;-60
2023/07/18 02:51:41;;;;;;;4.05;2.17;;;17.50;51.00;;;;;;4924362;28;20423;-60
2023/07/18 02:54:08;;;;;;;3.78;2.33;;;17.50;51.00;;;;;;4925935;28;20063;-60
2023/07/18 02:56:35;;;;;;;3.58;2.10;;;17.50;51.10;;;;;;4924728;28;20518;-59
2023/07/18 02:59:02;;;;;;;4.80;2.30;;;17.40;51.10;;;;;;4925173;28;20051;-60
2023/07/18 03:01:30;;;;;;;3.17;2.28;;;17.40;51.10;;;;;;4924932;28;20055;-60
2023/07/18 03:03:57;;;;;;;3.20;2.03;;;17.40;51.20;;;;;;4923761;28;20047;-60
2023/07/18 03:06:26;;;;;;;4.38;2.30;;;17.40;51.20;;;;;;4925196;28;20054;-60
2023/07/18 03:08:53;;;;;;;4.25;2.20;;;17.40;51.20;;;;;;4926649;28;20060;-60
2023/07/18 03:11:20;;;;;;;4.75;2.67;;;17.40;51.20;;;;;;4925166;28;20503;-59
2023/07/18 03:13:47;;;;;;;3.75;2.22;;;17.30;51.20;;;;;;4924885;28;20063;-60
2023/07/18 03:16:15;;;;;;;4.32;2.05;;;17.30;51.70;;;;;;4924781;28;20058;-60
2023/07/18 03:18:42;;;;;;;4.25;2.13;;;17.30;51.20;;;;;;4925499;28;20052;-60
2023/07/18 03:21:09;;;;;;;4.07;2.10;;;17.30;51.20;;;;;;4923537;28;20055;-60
2023/07/18 03:23:38;;;;;;;3.55;2.25;;;17.30;51.20;;;;;;4924979;28;20059;-60
2023/07/18 03:26:05;;;;;;;4.25;1.90;;;17.20;51.20;;;;;;4925557;28;20518;-59
2023/07/18 03:28:33;;;;;;;3.08;2.25;;;17.20;51.20;;;;;;4924835;28;20074;-60
2023/07/18 03:31:00;;;;;;;3.92;2.30;;;17.20;51.20;;;;;;4925914;28;20060;-60
2023/07/18 03:33:27;;;;;;;5.03;2.15;;;17.20;51.30;;;;;;4925085;28;20496;-60
2023/07/18 03:35:54;;;;;;;3.97;2.30;;;17.20;51.30;;;;;;4924495;28;20066;-60
2023/07/18 03:38:22;;;;;;;5.22;2.40;;;17.10;51.40;;;;;;4925122;28;20052;-60
2023/07/18 03:40:51;;;;;;;4.15;2.13;;;17.10;51.40;;;;;;4924727;28;20491;-60
2023/07/18 03:43:18;;;;;;;3.88;2.05;;;17.10;51.50;;;;;;4924814;28;20076;-60
2023/07/18 03:45:45;;;;;;;4.72;2.15;;;17.10;51.50;;;;;;4924637;28;20575;-60
2023/07/18 03:48:12;;;;;;;4.03;2.17;;;17.10;51.50;;;;;;4926548;28;20435;-60
2023/07/18 03:50:41;;;;;;;4.18;2.35;;;17.10;51.50;;;;;;4923722;28;20066;-60
2023/07/18 03:53:09;;;;;;;4.85;2.63;;;17.10;51.60;;;;;;4924970;28;20043;-60
2023/07/18 03:55:36;;;;;;;3.45;2.10;;;17.10;51.60;;;;;;4924368;28;20503;-60
2023/07/18 03:58:05;;;;;;;3.97;2.50;;;17.00;51.60;;;;;;4923533;28;20508;-59
2023/07/18 04:00:33;;;;;;;3.78;2.30;;;17.00;51.70;;;;;;4924184;28;20062;-60
2023/07/18 04:03:00;;;;;;;3.38;2.05;;;17.00;51.70;;;;;;4925857;28;20491;-59
2023/07/18 04:05:27;;;;;;;3.00;2.30;;;17.00;51.70;;;;;;4924231;28;20063;-60
2023/07/18 04:07:54;;;;;;;5.15;2.42;;;17.00;51.80;;;;;;4924993;28;20067;-58
2023/07/18 04:10:21;;;;;;;4.03;2.47;;;17.00;51.90;;;;;;4925408;28;20492;-59
2023/07/18 04:12:49;;;;;;;4.75;2.13;;;17.00;51.90;;;;;;4923834;28;20055;-60
2023/07/18 04:15:17;;;;;;;3.17;2.20;;;16.90;51.90;;;;;;4925527;28;20492;-60
2023/07/18 04:17:44;;;;;;;3.97;2.30;;;17.00;52.10;;;;;;4924975;28;20058;-59
2023/07/18 04:20:13;;;;;;;4.30;2.38;;;17.00;52.10;;;;;;4925375;28;20070;-60
2023/07/18 04:22:40;;;;;;;3.22;2.15;;;17.00;52.30;;;;;;4925070;28;20066;-60
2023/07/18 04:25:08;;;;;;;4.28;2.50;;;16.90;52.20;;;;;;4925425;28;20055;-60
2023/07/18 04:27:35;;;;;;;5.43;2.40;;;17.00;52.30;;;;;;4928059;28;20047;-60
2023/07/18 04:30:03;;;;;;;4.60;2.28;;;17.00;52.40;;;;;;4927878;28;20618;-60
2023/07/18 04:32:32;;;;;;;5.22;2.95;;;17.00;52.50;;;;;;4927205;28;20066;-60
2023/07/18 04:34:59;;;;;;;4.53;2.10;;;17.00;52.60;;;;;;4927885;28;20419;-56
2023/07/18 04:37:28;;;;;;;4.68;2.63;;;17.00;52.60;;;;;;4927747;28;20060;-56
2023/07/18 04:39:55;;;;;;;3.75;2.22;;;17.00;52.70;;;;;;4927906;28;20060;-56
2023/07/18 04:42:22;;;;;;;4.80;2.58;;;17.00;52.80;;;;;;4927512;28;20488;-55
2023/07/18 04:44:49;;;;;;;4.78;2.42;;;17.00;52.80;;;;;;4927537;28;20055;-57
2023/07/18 04:47:16;;;;;;;3.15;2.13;;;17.10;52.90;;;;;;4927429;28;20051;-56
2023/07/18 04:49:45;;;;;;;4.18;2.55;;;17.10;53.00;;;;;;4927984;28;20059;-56
2023/07/18 04:52:12;;;;;;;4.78;2.60;;;17.10;53.00;;;;;;4927143;28;20063;-56
2023/07/18 04:54:40;;;;;;;4.20;2.90;;;17.10;53.00;;;;;;4927860;28;20055;-57
2023/07/18 04:57:07;;;;;;;5.93;3.38;;;17.20;53.10;;;;;;4925858;28;20495;-56
2023/07/18 04:59:34;;;;;;;4.70;2.83;;;17.20;53.10;;;;;;4927161;28;20431;-57
2023/07/18 05:02:01;;;;;;;6.10;2.70;;;17.20;53.10;;;;;;4927640;28;20052;-57
2023/07/18 05:04:29;;;;;;;4.13;2.53;;;17.20;53.20;;;;;;4927661;28;20055;-56
2023/07/18 05:06:58;;;;;;;3.25;1.98;;;17.20;53.20;;;;;;4927242;28;20484;-56
2023/07/18 05:09:27;;;;;;;4.53;2.63;;;17.20;53.30;;;;;;4927217;28;20047;-56
2023/07/18 05:11:55;;;;;;;4.20;2.40;;;17.30;53.40;;;;;;4926779;28;20067;-59
2023/07/18 05:14:22;;;;;;;6.40;2.55;;;17.30;53.40;;;;;;4927291;28;20512;-55
2023/07/18 05:16:49;;;;;;;3.05;2.13;;;17.30;53.40;;;;;;4926446;28;20541;-58
2023/07/18 05:19:17;;;;;;;4.28;2.35;;;17.30;53.50;;;;;;4927465;28;20067;-57
2023/07/18 05:21:44;;;;;;;5.00;2.13;;;17.30;53.50;;;;;;4926570;28;20504;-57
2023/07/18 05:24:12;;;;;;;4.68;1.92;;;17.40;53.60;;;;;;4925401;28;20055;-56
2023/07/18 05:26:40;;;;;;;5.50;2.40;;;17.40;53.70;;;;;;4926445;28;20056;-59
2023/07/18 05:29:07;;;;;;;6.35;2.50;;;17.40;53.60;;;;;;4927623;28;20064;-56
2023/07/18 05:31:34;;;;;;;3.88;2.33;;;17.50;53.80;;;;;;4925848;28;20396;-57
2023/07/18 05:34:02;;;;;;;7.95;2.40;;;17.50;53.80;;;;;;4928295;28;20070;-56
2023/07/18 05:36:29;;;;;;;3.60;2.28;;;17.50;53.80;;;;;;4924604;28;20051;-56
2023/07/18 05:38:56;;;;;;;4.47;2.47;;;17.60;53.90;;;;;;4926517;28;20066;-59
2023/07/18 05:41:25;;;;;;;6.10;2.63;;;17.50;53.80;;;;;;4926401;28;20078;-58
2023/07/18 05:43:52;;;;;;;6.35;2.67;;;17.60;54.00;;;;;;4927369;28;20055;-56
2023/07/18 05:46:20;;;;;;;6.45;3.13;;;17.70;54.00;;;;;;4926632;28;20055;-56
2023/07/18 05:48:47;;;;;;;5.22;3.20;;;17.70;54.00;;;;;;4926838;28;20419;-57
2023/07/18 05:51:14;;;;;;;4.40;2.70;;;17.70;54.00;;;;;;4925748;28;20062;-58
2023/07/18 05:53:41;;;;;;;5.50;2.92;;;17.70;54.00;;;;;;4926726;28;20480;-56
2023/07/18 05:56:09;;;;;;;5.40;2.80;;;17.80;54.10;;;;;;4927003;28;20055;-56
2023/07/18 05:58:37;;;;;;;9.50;3.15;;;17.80;54.10;;;;;;4926087;28;20452;-56
2023/07/18 06:01:14;;;;;;;6.93;2.85;;;17.90;54.20;;;;;;4925482;28;20074;-57
2023/07/18 06:03:41;;;;;;;5.68;2.92;;;18.00;54.30;;;;;;4927585;28;20078;-55
2023/07/18 06:06:09;;;;;;;8.82;2.83;;;18.00;54.20;;;;;;4925348;28;20873;-53
2023/07/18 06:08:37;;;;;;;6.68;2.83;;;18.10;54.20;;;;;;4926372;28;20419;-57
2023/07/18 06:11:04;;;;;;;6.72;2.85;;;18.10;54.20;;;;;;4926349;28;20052;-57
2023/07/18 06:13:32;;;;;;;3.75;2.42;;;18.20;54.20;;;;;;4924786;28;20392;-58
2023/07/18 06:16:00;;;;;;;7.20;2.80;;;18.20;54.30;;;;;;4926749;28;20058;-57
2023/07/18 06:18:28;;;;;;;6.10;2.92;;;18.30;54.40;;;;;;4927080;28;20075;-56
2023/07/18 06:20:55;;;;;;;7.75;3.35;;;18.30;54.40;;;;;;4926010;28;20060;-56
2023/07/18 06:23:22;;;;;;;4.70;2.70;;;18.40;54.40;;;;;;4925262;28;20052;-59
2023/07/18 06:25:50;;;;;;;6.55;3.10;;;18.50;54.90;;;;;;4926214;28;20059;-57
2023/07/18 06:28:17;;;;;;;4.63;2.50;;;18.50;54.90;;;;;;4926546;28;20067;-59
2023/07/18 06:30:44;;;;;;;7.50;2.92;;;18.60;54.40;;;;;;4926141;28;20056;-57
2023/07/18 06:33:13;;;;;;;3.55;2.50;;;18.70;54.50;;;;;;4925294;28;20051;-59
2023/07/18 06:35:41;;;;;;;7.07;2.97;;;18.80;54.50;;;;;;4925262;28;20698;-56
2023/07/18 06:38:08;;;;;;;7.72;3.25;;;18.90;54.40;;;;;;4926556;28;20056;-57
2023/07/18 06:40:35;;;;;;;12.15;5.43;;;19.00;54.40;;;;;;4926101;28;20519;-55
2023/07/18 10:01:27;;;;;;;2.90;1.75;;;20.10;51.40;;;;;;5033813;27;21261;-51
2023/07/18 10:03:55;;;;;;;8.75;1.95;;;20.10;51.30;;;;;;5038096;28;20049;-56
2023/07/18 10:06:23;;;;;;;3.58;1.98;;;20.40;51.10;;;;;;5039271;28;20390;-51
2023/07/18 10:08:50;;;;;;;3.35;2.08;;;20.70;50.80;;;;;;5038937;28;20384;-51
2023/07/18 10:11:18;;;;;;;6.82;2.15;;;21.10;50.20;;;;;;5038801;28;20057;-53
2023/07/18 10:14:12;;;;;;;2.85;1.65;;;21.40;49.50;;;;;;5039285;28;20060;-50
2023/07/18 10:16:42;;;;;;;7.47;1.98;;;21.80;48.70;;;;;;5036787;28;20524;-52
2023/07/18 10:19:19;;;;;;;5.18;2.50;;;22.20;48.10;;;;;;5038547;28;20075;-50
2023/07/18 10:21:47;;;;;;;6.03;2.40;;;22.40;44.90;;;;;;5039216;28;20053;-52
2023/07/18 10:24:28;;;;;;;4.75;2.53;;;22.70;45.90;;;;;;5039404;28;20061;-49
2023/07/18 10:26:58;;;;;;;6.10;2.03;;;23.00;44.90;;;;;;5036259;28;20068;-58
2023/07/18 10:29:32;;;;;;;4.88;2.05;;;23.20;45.50;;;;;;5040020;28;20049;-55
2023/07/18 10:32:01;;;;;;;4.15;2.35;;;23.30;44.80;;;;;;5037119;28;20049;-54
2023/07/18 10:34:28;;;;;;;6.65;2.30;;;23.60;44.30;;;;;;5036634;28;20057;-53
2023/07/18 10:36:57;;;;;;;5.03;2.78;;;23.70;44.30;;;;;;5039779;28;21047;-50
2023/07/18 10:39:38;;;;;;;4.35;2.45;;;23.80;42.70;;;;;;5039163;28;20053;-57
2023/07/18 10:42:09;;;;;;;5.07;2.15;;;24.00;40.60;;;;;;5038478;28;20405;-55
2023/07/18 10:44:38;;;;;;;5.50;2.92;;;24.10;40.10;;;;;;5038474;28;20057;-51
2023/07/18 10:47:17;;;;;;;5.47;3.10;;;24.20;40.30;;;;;;5036128;28;20515;-50
2023/07/18 10:49:47;;;;;;;5.47;2.88;;;24.30;39.50;;;;;;5038599;28;20057;-51
2023/07/18 10:52:14;;;;;;;8.65;2.63;;;24.40;39.30;;;;;;5040096;28;20060;-54
2023/07/18 10:54:45;;;;;;;4.20;2.30;;;24.50;38.70;;;;;;5039518;28;20057;-57
2023/07/18 10:57:13;;;;;;;3.28;2.17;;;24.50;39.00;;;;;;5038888;28;20548;-58
2023/07/18 10:59:43;;;;;;;4.25;2.30;;;24.60;39.80;;;;;;5038785;28;20073;-51
2023/07/18 11:02:10;;;;;;;5.65;2.15;;;24.60;39.10;;;;;;5037096;28;20080;-52
2023/07/18 11:04:39;;;;;;;5.85;2.75;;;24.70;38.80;;;;;;5038345;28;20065;-50
2023/07/18 11:07:10;;;;;;;4.70;2.17;;;24.80;38.30;;;;;;5039764;28;20064;-49
2023/07/18 11:09:37;;;;;;;4.72;2.55;;;24.80;38.10;;;;;;5038822;28;20060;-54
2023/07/18 11:12:05;;;;;;;4.47;2.35;;;25.00;38.50;;;;;;5027317;28;20049;-52
2023/07/18 11:14:39;;;;;;;5.60;2.40;;;25.00;39.00;;;;;;5023755;28;20053;-48
2023/07/18 11:17:12;;;;;;;5.32;2.88;;;25.10;37.60;;;;;;5023132;28;20061;-47
2023/07/18 11:19:41;;;;;;;6.23;2.73;;;25.20;36.90;;;;;;5024285;28;20057;-49
2023/07/18 11:22:10;;;;;;;3.58;2.75;;;25.30;37.60;;;;;;5024088;28;20056;-53
2023/07/18 11:24:38;;;;;;;8.55;2.70;;;25.30;38.00;;;;;;5023240;28;20061;-56
2023/07/18 11:27:12;;;;;;;4.05;2.53;;;25.40;38.70;;;;;;5024951;28;20476;-54
2023/07/18 11:29:40;;;;;;;5.45;2.70;;;25.50;37.60;;;;;;5023267;28;20053;-53
2023/07/18 11:32:07;;;;;;;5.65;2.72;;;25.60;38.60;;;;;;5022068;28;20061;-54
2023/07/18 11:34:35;;;;;;;7.07;2.50;;;25.60;37.90;;;;;;5023449;28;20092;-50
2023/07/18 11:37:06;;;;;;;2.97;2.00;;;25.70;36.90;;;;;;5022951;28;20046;-54
2023/07/18 11:39:33;;;;;;;5.25;2.60;;;25.70;37.70;;;;;;5022962;28;20049;-55
2023/07/18 11:42:08;;;;;;;5.80;2.50;;;25.70;36.00;;;;;;5023561;28;20046;-56
2023/07/18 11:44:36;;;;;;;3.35;2.28;;;25.80;36.20;;;;;;5022755;28;20057;-54
2023/07/18 11:47:11;;;;;;;4.15;2.20;;;25.70;36.90;;;;;;5022470;28;20061;-55
2023/07/18 11:49:39;;;;;;;5.40;2.55;;;25.70;37.40;;;;;;5023614;28;20053;-55
2023/07/18 11:52:09;;;;;;;5.32;2.20;;;25.70;36.70;;;;;;5024234;28;20061;-54
2023/07/18 11:54:37;;;;;;;4.30;2.28;;;25.70;37.10;;;;;;5023117;28;20060;-56
2023/07/18 11:57:05;;;;;;;4.32;2.55;;;25.70;37.50;;;;;;5024116;28;20417;-55
2023/07/18 11:59:33;;;;;;;4.28;2.22;;;25.70;37.70;;;;;;5023173;28;20049;-51
2023/07/18 12:02:01;;;;;;;5.55;2.63;;;25.70;38.00;;;;;;5022609;28;20057;-46
2023/07/18 12:04:28;;;;;;;4.53;2.00;;;25.70;37.90;;;;;;5022848;28;20053;-52
2023/07/18 12:06:55;;;;;;;4.75;2.55;;;25.80;38.00;;;;;;5023819;28;20485;-50
2023/07/18 12:09:24;;;;;;;4.05;2.17;;;25.80;37.90;;;;;;5023073;28;20412;-56
2023/07/18 12:11:51;;;;;;;5.47;2.55;;;25.80;37.90;;;;;;5023270;28;20400;-47
2023/07/18 12:14:18;;;;;;;5.28;2.33;;;25.90;37.30;;;;;;5023629;28;20539;-51
2023/07/18 12:16:46;;;;;;;7.53;2.60;;;25.90;36.90;;;;;;5022360;28;20057;-51
2023/07/18 12:19:13;;;;;;;3.50;2.15;;;26.00;36.00;;;;;;5023178;28;20050;-48
2023/07/18 12:21:40;;;;;;;5.85;2.92;;;26.00;36.60;;;;;;5023315;28;20056;-50
2023/07/18 12:24:08;;;;;;;6.13;2.70;;;26.00;35.40;;;;;;5022238;28;20076;-46
2023/07/18 12:26:36;;;;;;;5.18;2.50;;;26.10;35.10;;;;;;5022562;28;20132;-48
2023/07/18 12:29:05;;;;;;;7.07;2.75;;;26.10;34.70;;;;;;5023441;28;20421;-48
2023/07/18 12:31:34;;;;;;;6.53;2.60;;;26.10;34.20;;;;;;5021506;28;20050;-49
2023/07/18 12:34:01;;;;;;;5.28;2.78;;;26.20;35.20;;;;;;5023876;28;20049;-46
2023/07/18 12:36:29;;;;;;;5.90;2.40;;;26.20;34.10;;;;;;5022955;28;20063;-46
2023/07/18 12:38:56;;;;;;;5.80;2.40;;;26.30;34.00;;;;;;5023175;28;20516;-49
2023/07/18 12:41:23;;;;;;;3.33;2.13;;;26.30;34.20;;;;;;5022299;28;20041;-46
2023/07/18 12:43:52;;;;;;;6.57;2.63;;;26.30;34.50;;;;;;5023387;28;21042;-51
2023/07/18 12:46:22;;;;;;;5.63;2.25;;;26.30;33.90;;;;;;5020911;28;20080;-52
2023/07/18 12:48:49;;;;;;;4.63;2.42;;;26.30;34.90;;;;;;5022900;28;20061;-55
2023/07/18 12:51:16;;;;;;;5.15;2.30;;;26.30;35.10;;;;;;5023258;28;20091;-51
2023/07/18 12:53:44;;;;;;;4.07;2.22;;;26.40;35.30;;;;;;5022726;28;20508;-54
2023/07/18 12:56:11;;;;;;;2.83;1.60;;;26.40;35.50;;;;;;5022011;28;20052;-52
2023/07/18 12:58:38;;;;;;;5.28;2.88;;;26.50;35.70;;;;;;5023544;28;20421;-48
2023/07/18 13:01:07;;;;;;;6.97;2.50;;;26.50;34.80;;;;;;5020823;28;20060;-48
2023/07/18 13:03:34;;;;;;;5.10;2.25;;;26.50;34.00;;;;;;5023065;28;20060;-49
2023/07/18 13:06:03;;;;;;;4.82;2.30;;;26.50;33.20;;;;;;5023155;28;21287;-49
2023/07/18 13:08:30;;;;;;;5.65;2.03;;;26.60;33.70;;;;;;5022352;28;20052;-48
2023/07/18 13:10:57;;;;;;;5.07;2.60;;;26.60;34.20;;;;;;5021606;28;20064;-54
2023/07/18 13:13:25;;;;;;;4.35;2.35;;;26.60;33.60;;;;;;5022359;28;20049;-51
2023/07/18 13:15:52;;;;;;;3.78;2.70;;;26.70;33.90;;;;;;5019900;28;20484;-51
2023/07/18 13:18:20;;;;;;;2.55;1.80;;;26.60;34.20;;;;;;5022849;28;20064;-49
2023/07/18 13:20:48;;;;;;;3.30;2.30;;;26.70;34.70;;;;;;5021918;28;20493;-51
2023/07/18 13:23:15;;;;;;;4.30;2.40;;;26.70;34.70;;;;;;5023466;28;20056;-51
2023/07/18 13:25:42;;;;;;;4.60;2.22;;;26.80;34.70;;;;;;5021335;28;20049;-56
2023/07/18 13:28:09;;;;;;;3.97;2.40;;;26.80;34.70;;;;;;5022107;28;20057;-51
2023/07/18 13:30:39;;;;;;;5.43;2.90;;;26.90;33.80;;;;;;5019592;28;20053;-49
2023/07/18 13:33:06;;;;;;;7.20;2.92;;;26.90;33.00;;;;;;5022121;28;20052;-49
2023/07/18 13:35:35;;;;;;;5.53;2.83;;;26.90;33.10;;;;;;5022254;28;20417;-50
2023/07/18 13:38:02;;;;;;;3.95;2.55;;;27.00;32.80;;;;;;5023018;28;20054;-48
2023/07/18 13:40:30;;;;;;;3.22;2.10;;;26.90;33.80;;;;;;5021691;28;20049;-49
2023/07/18 13:42:57;;;;;;;4.93;2.20;;;26.90;34.10;;;;;;5023906;28;20512;-50
2023/07/18 13:45:24;;;;;;;3.78;2.17;;;26.90;34.90;;;;;;5021656;28;20049;-47
2023/07/18 13:47:51;;;;;;;2.55;1.77;;;26.90;34.50;;;;;;5020449;28;20056;-52
2023/07/18 13:50:19;;;;;;;5.10;2.50;;;26.90;34.50;;;;;;5022700;28;20719;-48
2023/07/18 13:52:47;;;;;;;4.72;2.28;;;27.00;34.30;;;;;;5023392;28;20450;-55
2023/07/18 13:55:15;;;;;;;4.07;2.22;;;26.90;34.30;;;;;;5021175;28;20057;-52
2023/07/18 13:57:42;;;;;;;3.72;2.40;;;27.00;34.40;;;;;;5021929;28;20060;-53
2023/07/18 14:00:11;;;;;;;5.55;2.40;;;27.00;34.30;;;;;;5020813;28;20057;-52
2023/07/18 14:02:38;;;;;;;4.40;2.50;;;27.00;34.30;;;;;;5022128;28;20512;-47
2023/07/18 14:05:07;;;;;;;4.00;2.30;;;27.00;34.30;;;;;;5021059;28;20057;-48
2023/07/18 14:07:35;;;;;;;2.92;2.03;;;26.90;34.20;;;;;;5022816;28;20132;-52
2023/07/18 14:10:04;;;;;;;4.00;2.17;;;26.90;34.80;;;;;;5021246;28;20092;-51
2023/07/18 14:12:31;;;;;;;4.45;2.20;;;26.80;34.90;;;;;;5021823;28;20049;-49
2023/07/18 14:14:58;;;;;;;4.00;2.50;;;26.80;34.60;;;;;;5020560;28;20271;-52
2023/07/18 14:17:26;;;;;;;4.15;2.20;;;26.80;34.70;;;;;;5021545;28;20053;-51
2023/07/18 14:19:53;;;;;;;4.07;2.03;;;26.80;34.90;;;;;;5021643;28;20053;-51
2023/07/18 14:22:20;;;;;;;3.53;1.95;;;26.70;35.30;;;;;;5022572;28;20409;-51
2023/07/18 14:24:49;;;;;;;4.22;2.05;;;26.70;35.00;;;;;;5021097;28;20057;-48
2023/07/18 14:27:18;;;;;;;3.55;2.45;;;26.70;34.90;;;;;;5020588;28;20053;-49
2023/07/18 14:29:45;;;;;;;3.78;2.33;;;26.70;34.90;;;;;;5026980;28;20057;-51
2023/07/18 14:32:12;;;;;;;3.30;2.05;;;26.60;34.90;;;;;;5021439;28;20057;-51
2023/07/18 14:34:40;;;;;;;4.25;2.60;;;26.70;34.90;;;;;;5020918;28;20053;-53
2023/07/18 14:37:07;;;;;;;4.65;2.38;;;26.60;34.80;;;;;;5020986;28;20053;-51
2023/07/18 14:39:39;;;;;;;5.95;2.75;;;26.70;34.40;;;;;;5020628;28;20045;-54
2023/07/18 14:42:06;;;;;;;3.75;2.08;;;26.70;34.30;;;;;;5019917;28;20054;-54
2023/07/18 14:44:35;;;;;;;2.95;2.05;;;26.70;34.50;;;;;;5020635;28;20072;-52
2023/07/18 14:47:03;;;;;;;5.85;2.30;;;26.70;34.70;;;;;;5021864;28;20494;-56
2023/07/18 14:49:30;;;;;;;3.22;2.17;;;26.70;34.70;;;;;;5025255;28;20053;-52
2023/07/18 14:51:58;;;;;;;4.80;2.70;;;26.70;34.90;;;;;;5025900;28;20067;-59
2023/07/18 14:54:25;;;;;;;3.78;2.22;;;26.70;34.30;;;;;;5026144;28;20057;-50
2023/07/18 14:56:52;;;;;;;2.65;2.00;;;26.70;33.60;;;;;;5025609;28;20049;-53
2023/07/18 14:59:19;;;;;;;4.38;2.30;;;26.80;34.20;;;;;;5025429;28;20050;-51
2023/07/18 15:01:48;;;;;;;5.25;2.30;;;26.80;34.40;;;;;;5023293;28;20377;-55
2023/07/18 15:04:15;;;;;;;3.42;2.15;;;26.80;34.20;;;;;;5024390;28;20057;-54
2023/07/18 15:06:43;;;;;;;6.55;3.75;;;26.80;34.10;;;;;;5025775;28;20462;-55
2023/07/18 15:09:10;;;;;;;4.43;2.83;;;26.80;34.40;;;;;;5022574;28;20064;-51
2023/07/18 15:11:38;;;;;;;5.85;2.75;;;26.90;34.10;;;;;;5025062;28;20057;-52
2023/07/18 15:14:05;;;;;;;5.57;2.97;;;26.90;33.50;;;;;;5023495;28;20061;-54
2023/07/18 15:16:32;;;;;;;4.85;2.10;;;27.00;32.90;;;;;;5022433;28;20481;-53
2023/07/18 15:19:01;;;;;;;5.65;2.85;;;27.00;33.20;;;;;;5023091;28;20053;-51
2023/07/18 15:21:28;;;;;;;6.13;2.90;;;27.00;32.80;;;;;;5025391;28;20060;-55
2023/07/18 15:23:55;;;;;;;5.43;2.45;;;27.00;33.00;;;;;;5023768;28;20381;-54
2023/07/18 15:26:23;;;;;;;7.88;2.67;;;27.00;33.40;;;;;;5024433;28;20409;-51
2023/07/18 15:28:50;;;;;;;6.13;2.47;;;27.10;33.20;;;;;;5023451;28;20060;-52
2023/07/18 15:31:18;;;;;;;5.70;2.83;;;27.10;32.60;;;;;;5022330;28;20545;-54
2023/07/18 15:33:46;;;;;;;4.80;2.70;;;27.10;32.30;;;;;;5022023;28;20049;-49
2023/07/18 15:36:15;;;;;;;5.35;2.65;;;27.10;32.90;;;;;;5023076;28;20408;-51
2023/07/18 15:38:42;;;;;;;5.80;2.53;;;27.10;32.40;;;;;;5025185;28;20060;-49
2023/07/18 15:41:09;;;;;;;6.53;2.70;;;27.10;32.80;;;;;;5023988;28;20441;-51
2023/07/18 15:43:36;;;;;;;5.25;2.35;;;27.20;32.60;;;;;;5024321;28;20508;-54
2023/07/18 15:46:04;;;;;;;3.10;2.05;;;27.20;33.00;;;;;;5022047;28;20061;-51
2023/07/18 15:48:31;;;;;;;4.80;2.45;;;27.20;33.40;;;;;;5024434;28;20049;-49
2023/07/18 15:50:58;;;;;;;3.42;2.17;;;27.20;33.50;;;;;;5025130;28;20490;-55
2023/07/18 15:53:27;;;;;;;3.63;2.15;;;27.20;33.80;;;;;;5023001;28;20056;-52
2023/07/18 15:55:55;;;;;;;5.57;2.10;;;27.30;33.50;;;;;;5024818;28;20056;-57
2023/07/18 15:58:22;;;;;;;5.43;2.60;;;27.30;33.80;;;;;;5023358;28;20389;-54
2023/07/18 16:00:51;;;;;;;9.65;3.17;;;27.30;33.80;;;;;;5021311;28;20136;-53
2023/07/18 16:03:18;;;;;;;4.03;2.40;;;27.30;32.90;;;;;;5022743;28;20056;-53
2023/07/18 16:05:46;;;;;;;4.45;2.60;;;27.40;33.40;;;;;;5023762;28;20045;-57
2023/07/18 16:08:14;;;;;;;5.22;2.55;;;27.40;33.50;;;;;;5022180;28;20072;-57
2023/07/18 16:10:43;;;;;;;4.07;2.50;;;27.30;33.50;;;;;;5020327;28;20063;-50
2023/07/18 16:13:10;;;;;;;3.63;2.47;;;27.40;33.50;;;;;;5022957;28;20492;-53